sensor_id;sensor_type;location;lat;lon;timestamp;P1;durP1;ratioP1;P2;durP2;ratioP2
72676;SDS011;60755;51.374;10.662;2022-08-04T00:00:44;3.70;;;3.40;;
72676;SDS011;60755;51.374;10.662;2022-08-04T00:03:23;4.22;;;3.55;;
72676;SDS011;60755;51.374;10.662;2022-08-04T00:05:58;4.00;;;3.60;;
72676;SDS011;60755;51.374;10.662;2022-08-04T00:08:39;3.05;;;2.95;;
72676;SDS011;60755;51.374;10.662;2022-08-04T00:11:09;3.78;;;3.47;;
72676;SDS011;60755;51.374;10.662;2022-08-04T00:13:38;3.70;;;3.50;;
72676;SDS011;60755;51.374;10.662;2022-08-04T00:16:10;3.83;;;3.60;;
72676;SDS011;60755;51.374;10.662;2022-08-04T00:18:40;7.50;;;3.55;;
72676;SDS011;60755;51.374;10.662;2022-08-04T00:21:09;3.25;;;3.13;;
72676;SDS011;60755;51.374;10.662;2022-08-04T00:23:41;3.50;;;3.30;;
72676;SDS011;60755;51.374;10.662;2022-08-04T00:26:09;3.45;;;3.25;;
72676;SDS011;60755;51.374;10.662;2022-08-04T00:28:36;3.72;;;3.42;;
72676;SDS011;60755;51.374;10.662;2022-08-04T00:31:03;3.30;;;3.10;;
72676;SDS011;60755;51.374;10.662;2022-08-04T00:33:30;4.43;;;3.35;;
72676;SDS011;60755;51.374;10.662;2022-08-04T00:35:58;3.58;;;3.38;;
72676;SDS011;60755;51.374;10.662;2022-08-04T00:38:27;3.83;;;3.47;;
72676;SDS011;60755;51.374;10.662;2022-08-04T00:40:56;3.70;;;3.50;;
72676;SDS011;60755;51.374;10.662;2022-08-04T00:43:36;3.70;;;3.50;;
72676;SDS011;60755;51.374;10.662;2022-08-04T00:46:18;3.60;;;3.50;;
72676;SDS011;60755;51.374;10.662;2022-08-04T00:52:05;3.17;;;3.08;;
72676;SDS011;60755;51.374;10.662;2022-08-04T00:54:48;3.70;;;3.50;;
72676;SDS011;60755;51.374;10.662;2022-08-04T00:57:36;3.80;;;3.50;;
72676;SDS011;60755;51.374;10.662;2022-08-04T01:00:16;3.58;;;3.38;;
72676;SDS011;60755;51.374;10.662;2022-08-04T01:02:47;3.92;;;3.67;;
72676;SDS011;60755;51.374;10.662;2022-08-04T01:05:27;5.72;;;3.70;;
72676;SDS011;60755;51.374;10.662;2022-08-04T01:08:03;4.07;;;3.85;;
72676;SDS011;60755;51.374;10.662;2022-08-04T01:10:50;4.05;;;3.85;;
72676;SDS011;60755;51.374;10.662;2022-08-04T01:16:17;4.20;;;3.70;;
72676;SDS011;60755;51.374;10.662;2022-08-04T01:18:53;3.60;;;3.50;;
72676;SDS011;60755;51.374;10.662;2022-08-04T01:24:28;3.80;;;3.50;;
72676;SDS011;60755;51.374;10.662;2022-08-04T01:27:08;3.55;;;3.35;;
72676;SDS011;60755;51.374;10.662;2022-08-04T01:29:39;3.60;;;3.40;;
72676;SDS011;60755;51.374;10.662;2022-08-04T01:32:13;3.90;;;3.60;;
72676;SDS011;60755;51.374;10.662;2022-08-04T01:34:46;5.10;;;3.38;;
72676;SDS011;60755;51.374;10.662;2022-08-04T01:37:19;3.60;;;3.40;;
72676;SDS011;60755;51.374;10.662;2022-08-04T01:39:57;7.85;;;3.30;;
72676;SDS011;60755;51.374;10.662;2022-08-04T01:42:28;3.45;;;3.28;;
72676;SDS011;60755;51.374;10.662;2022-08-04T01:44:58;4.03;;;3.65;;
72676;SDS011;60755;51.374;10.662;2022-08-04T01:47:27;3.50;;;3.30;;
72676;SDS011;60755;51.374;10.662;2022-08-04T01:49:57;5.15;;;3.30;;
72676;SDS011;60755;51.374;10.662;2022-08-04T01:52:32;4.03;;;3.60;;
72676;SDS011;60755;51.374;10.662;2022-08-04T01:55:02;3.40;;;3.20;;
72676;SDS011;60755;51.374;10.662;2022-08-04T01:57:31;3.58;;;3.38;;
72676;SDS011;60755;51.374;10.662;2022-08-04T02:00:00;3.60;;;3.30;;
72676;SDS011;60755;51.374;10.662;2022-08-04T02:02:27;3.45;;;3.25;;
72676;SDS011;60755;51.374;10.662;2022-08-04T02:04:53;3.42;;;3.10;;
72676;SDS011;60755;51.374;10.662;2022-08-04T02:07:25;4.15;;;3.17;;
72676;SDS011;60755;51.374;10.662;2022-08-04T02:10:02;3.58;;;3.30;;
72676;SDS011;60755;51.374;10.662;2022-08-04T02:12:36;3.25;;;3.15;;
72676;SDS011;60755;51.374;10.662;2022-08-04T02:15:16;3.83;;;3.45;;
72676;SDS011;60755;51.374;10.662;2022-08-04T02:17:55;5.63;;;3.10;;
72676;SDS011;60755;51.374;10.662;2022-08-04T02:20:28;3.67;;;3.38;;
72676;SDS011;60755;51.374;10.662;2022-08-04T02:22:58;3.63;;;3.15;;
72676;SDS011;60755;51.374;10.662;2022-08-04T02:25:36;3.65;;;3.40;;
72676;SDS011;60755;51.374;10.662;2022-08-04T02:28:10;3.67;;;3.40;;
72676;SDS011;60755;51.374;10.662;2022-08-04T02:30:45;4.28;;;3.50;;
72676;SDS011;60755;51.374;10.662;2022-08-04T02:33:19;3.67;;;3.05;;
72676;SDS011;60755;51.374;10.662;2022-08-04T02:35:50;4.65;;;3.20;;
72676;SDS011;60755;51.374;10.662;2022-08-04T02:38:29;3.88;;;3.67;;
72676;SDS011;60755;51.374;10.662;2022-08-04T02:41:15;3.92;;;3.38;;
72676;SDS011;60755;51.374;10.662;2022-08-04T02:43:42;3.67;;;3.17;;
72676;SDS011;60755;51.374;10.662;2022-08-04T02:46:15;3.92;;;3.63;;
72676;SDS011;60755;51.374;10.662;2022-08-04T02:48:43;4.10;;;3.70;;
72676;SDS011;60755;51.374;10.662;2022-08-04T02:51:12;3.30;;;3.10;;
72676;SDS011;60755;51.374;10.662;2022-08-04T02:53:40;6.45;;;3.35;;
72676;SDS011;60755;51.374;10.662;2022-08-04T02:56:08;4.05;;;3.75;;
72676;SDS011;60755;51.374;10.662;2022-08-04T02:58:37;3.42;;;3.30;;
72676;SDS011;60755;51.374;10.662;2022-08-04T03:01:03;3.90;;;3.55;;
72676;SDS011;60755;51.374;10.662;2022-08-04T03:03:33;6.25;;;3.60;;
72676;SDS011;60755;51.374;10.662;2022-08-04T03:12:20;4.43;;;4.03;;
72676;SDS011;60755;51.374;10.662;2022-08-04T03:15:08;3.78;;;3.47;;
72676;SDS011;60755;51.374;10.662;2022-08-04T03:18:02;3.85;;;3.55;;
72676;SDS011;60755;51.374;10.662;2022-08-04T03:20:59;3.80;;;3.40;;
72676;SDS011;60755;51.374;10.662;2022-08-04T03:23:48;4.10;;;3.70;;
72676;SDS011;60755;51.374;10.662;2022-08-04T03:29:59;4.95;;;3.80;;
72676;SDS011;60755;51.374;10.662;2022-08-04T03:32:49;3.65;;;3.35;;
72676;SDS011;60755;51.374;10.662;2022-08-04T03:35:38;5.53;;;3.70;;
72676;SDS011;60755;51.374;10.662;2022-08-04T03:38:35;3.83;;;3.50;;
72676;SDS011;60755;51.374;10.662;2022-08-04T03:41:26;3.88;;;3.55;;
72676;SDS011;60755;51.374;10.662;2022-08-04T03:47:33;3.92;;;3.53;;
72676;SDS011;60755;51.374;10.662;2022-08-04T03:50:26;3.83;;;3.55;;
72676;SDS011;60755;51.374;10.662;2022-08-04T03:53:19;7.53;;;3.65;;
72676;SDS011;60755;51.374;10.662;2022-08-04T04:05:19;3.53;;;3.33;;
72676;SDS011;60755;51.374;10.662;2022-08-04T04:08:11;3.83;;;3.53;;
72676;SDS011;60755;51.374;10.662;2022-08-04T04:10:59;3.40;;;3.30;;
72676;SDS011;60755;51.374;10.662;2022-08-04T04:13:47;3.78;;;3.58;;
72676;SDS011;60755;51.374;10.662;2022-08-04T04:16:31;4.68;;;3.40;;
72676;SDS011;60755;51.374;10.662;2022-08-04T04:22:14;3.60;;;3.40;;
72676;SDS011;60755;51.374;10.662;2022-08-04T04:24:57;6.45;;;3.00;;
72676;SDS011;60755;51.374;10.662;2022-08-04T04:27:39;3.45;;;3.30;;
72676;SDS011;60755;51.374;10.662;2022-08-04T04:30:18;3.25;;;3.13;;
72676;SDS011;60755;51.374;10.662;2022-08-04T04:32:58;3.97;;;3.67;;
72676;SDS011;60755;51.374;10.662;2022-08-04T04:35:34;3.53;;;3.22;;
72676;SDS011;60755;51.374;10.662;2022-08-04T04:38:20;3.95;;;3.63;;
72676;SDS011;60755;51.374;10.662;2022-08-04T04:47:17;3.92;;;3.60;;
72676;SDS011;60755;51.374;10.662;2022-08-04T04:49:58;3.85;;;3.60;;
72676;SDS011;60755;51.374;10.662;2022-08-04T04:52:35;3.72;;;3.40;;
72676;SDS011;60755;51.374;10.662;2022-08-04T04:55:08;3.50;;;3.33;;
72676;SDS011;60755;51.374;10.662;2022-08-04T04:57:39;7.57;;;3.95;;
72676;SDS011;60755;51.374;10.662;2022-08-04T05:00:07;3.70;;;3.50;;
72676;SDS011;60755;51.374;10.662;2022-08-04T05:05:39;3.40;;;3.30;;
72676;SDS011;60755;51.374;10.662;2022-08-04T05:11:40;7.13;;;3.38;;
72676;SDS011;60755;51.374;10.662;2022-08-04T05:14:29;5.45;;;3.50;;
72676;SDS011;60755;51.374;10.662;2022-08-04T05:17:00;4.80;;;3.25;;
72676;SDS011;60755;51.374;10.662;2022-08-04T05:19:33;6.25;;;3.60;;
72676;SDS011;60755;51.374;10.662;2022-08-04T05:22:10;6.15;;;3.60;;
72676;SDS011;60755;51.374;10.662;2022-08-04T05:24:41;8.15;;;3.20;;
72676;SDS011;60755;51.374;10.662;2022-08-04T05:27:11;3.58;;;3.00;;
72676;SDS011;60755;51.374;10.662;2022-08-04T05:29:44;3.30;;;3.05;;
72676;SDS011;60755;51.374;10.662;2022-08-04T05:32:14;3.20;;;3.00;;
72676;SDS011;60755;51.374;10.662;2022-08-04T05:34:48;5.93;;;2.90;;
72676;SDS011;60755;51.374;10.662;2022-08-04T05:37:20;4.35;;;2.70;;
72676;SDS011;60755;51.374;10.662;2022-08-04T05:39:53;5.80;;;3.08;;
72676;SDS011;60755;51.374;10.662;2022-08-04T05:42:22;3.60;;;3.10;;
72676;SDS011;60755;51.374;10.662;2022-08-04T05:44:50;4.18;;;2.90;;
72676;SDS011;60755;51.374;10.662;2022-08-04T05:47:17;4.80;;;2.65;;
72676;SDS011;60755;51.374;10.662;2022-08-04T05:49:46;7.60;;;3.10;;
72676;SDS011;60755;51.374;10.662;2022-08-04T05:52:13;9.13;;;2.83;;
72676;SDS011;60755;51.374;10.662;2022-08-04T05:54:40;5.30;;;2.90;;
72676;SDS011;60755;51.374;10.662;2022-08-04T05:57:07;5.53;;;2.90;;
72676;SDS011;60755;51.374;10.662;2022-08-04T05:59:36;3.17;;;2.65;;
72676;SDS011;60755;51.374;10.662;2022-08-04T06:02:05;6.85;;;2.90;;
72676;SDS011;60755;51.374;10.662;2022-08-04T06:04:36;3.08;;;2.58;;
72676;SDS011;60755;51.374;10.662;2022-08-04T06:07:05;6.75;;;3.25;;
72676;SDS011;60755;51.374;10.662;2022-08-04T06:09:35;4.97;;;3.33;;
72676;SDS011;60755;51.374;10.662;2022-08-04T06:12:03;6.07;;;3.03;;
72676;SDS011;60755;51.374;10.662;2022-08-04T06:14:34;6.32;;;2.80;;
72676;SDS011;60755;51.374;10.662;2022-08-04T06:17:04;8.30;;;2.97;;
72676;SDS011;60755;51.374;10.662;2022-08-04T06:19:34;13.48;;;2.75;;
72676;SDS011;60755;51.374;10.662;2022-08-04T06:22:02;7.43;;;3.15;;
72676;SDS011;60755;51.374;10.662;2022-08-04T06:24:34;7.53;;;3.03;;
72676;SDS011;60755;51.374;10.662;2022-08-04T06:27:03;4.72;;;3.03;;
72676;SDS011;60755;51.374;10.662;2022-08-04T06:29:31;5.68;;;2.97;;
72676;SDS011;60755;51.374;10.662;2022-08-04T06:32:00;4.25;;;3.03;;
72676;SDS011;60755;51.374;10.662;2022-08-04T06:34:37;17.58;;;2.95;;
72676;SDS011;60755;51.374;10.662;2022-08-04T06:37:05;2.70;;;2.58;;
72676;SDS011;60755;51.374;10.662;2022-08-04T06:39:33;7.15;;;2.60;;
72676;SDS011;60755;51.374;10.662;2022-08-04T06:42:01;3.55;;;2.80;;
72676;SDS011;60755;51.374;10.662;2022-08-04T06:44:29;3.45;;;2.65;;
72676;SDS011;60755;51.374;10.662;2022-08-04T06:46:56;2.70;;;2.50;;
72676;SDS011;60755;51.374;10.662;2022-08-04T06:49:23;3.38;;;2.60;;
72676;SDS011;60755;51.374;10.662;2022-08-04T06:51:51;2.88;;;2.67;;
72676;SDS011;60755;51.374;10.662;2022-08-04T06:54:22;2.92;;;2.50;;
72676;SDS011;60755;51.374;10.662;2022-08-04T06:56:48;4.85;;;2.67;;
72676;SDS011;60755;51.374;10.662;2022-08-04T06:59:18;3.30;;;2.70;;
72676;SDS011;60755;51.374;10.662;2022-08-04T07:01:46;2.95;;;2.85;;
72676;SDS011;60755;51.374;10.662;2022-08-04T07:04:14;2.75;;;2.65;;
72676;SDS011;60755;51.374;10.662;2022-08-04T07:06:40;4.70;;;2.63;;
72676;SDS011;60755;51.374;10.662;2022-08-04T07:09:07;2.92;;;2.80;;
72676;SDS011;60755;51.374;10.662;2022-08-04T07:11:35;2.75;;;2.65;;
72676;SDS011;60755;51.374;10.662;2022-08-04T07:14:02;3.45;;;3.20;;
72676;SDS011;60755;51.374;10.662;2022-08-04T07:16:30;2.92;;;2.72;;
72676;SDS011;60755;51.374;10.662;2022-08-04T07:18:59;2.95;;;2.85;;
72676;SDS011;60755;51.374;10.662;2022-08-04T07:21:25;4.47;;;2.75;;
72676;SDS011;60755;51.374;10.662;2022-08-04T07:23:52;3.65;;;3.00;;
72676;SDS011;60755;51.374;10.662;2022-08-04T07:26:19;7.93;;;3.30;;
72676;SDS011;60755;51.374;10.662;2022-08-04T07:28:53;3.35;;;2.88;;
72676;SDS011;60755;51.374;10.662;2022-08-04T07:31:20;2.78;;;2.67;;
72676;SDS011;60755;51.374;10.662;2022-08-04T07:33:48;4.43;;;2.65;;
72676;SDS011;60755;51.374;10.662;2022-08-04T07:36:15;4.35;;;3.08;;
72676;SDS011;60755;51.374;10.662;2022-08-04T07:38:42;4.43;;;2.78;;
72676;SDS011;60755;51.374;10.662;2022-08-04T07:41:08;3.03;;;2.80;;
72676;SDS011;60755;51.374;10.662;2022-08-04T07:43:35;2.90;;;2.70;;
72676;SDS011;60755;51.374;10.662;2022-08-04T07:46:04;3.42;;;3.15;;
72676;SDS011;60755;51.374;10.662;2022-08-04T07:48:31;4.35;;;2.90;;
72676;SDS011;60755;51.374;10.662;2022-08-04T07:50:57;3.20;;;3.00;;
72676;SDS011;60755;51.374;10.662;2022-08-04T07:53:24;4.85;;;2.88;;
72676;SDS011;60755;51.374;10.662;2022-08-04T07:55:51;3.13;;;2.85;;
72676;SDS011;60755;51.374;10.662;2022-08-04T07:58:18;4.13;;;3.15;;
72676;SDS011;60755;51.374;10.662;2022-08-04T08:00:44;3.88;;;3.05;;
72676;SDS011;60755;51.374;10.662;2022-08-04T08:03:13;6.97;;;3.05;;
72676;SDS011;60755;51.374;10.662;2022-08-04T08:05:40;4.30;;;3.10;;
72676;SDS011;60755;51.374;10.662;2022-08-04T08:08:07;3.10;;;3.00;;
72676;SDS011;60755;51.374;10.662;2022-08-04T08:10:35;4.95;;;3.38;;
72676;SDS011;60755;51.374;10.662;2022-08-04T08:13:02;4.53;;;3.50;;
72676;SDS011;60755;51.374;10.662;2022-08-04T08:15:30;3.10;;;3.00;;
72676;SDS011;60755;51.374;10.662;2022-08-04T08:17:56;3.80;;;3.00;;
72676;SDS011;60755;51.374;10.662;2022-08-04T08:20:24;3.67;;;3.15;;
72676;SDS011;60755;51.374;10.662;2022-08-04T08:22:50;3.60;;;3.20;;
72676;SDS011;60755;51.374;10.662;2022-08-04T08:25:17;4.88;;;3.35;;
72676;SDS011;60755;51.374;10.662;2022-08-04T08:27:44;17.45;;;3.97;;
72676;SDS011;60755;51.374;10.662;2022-08-04T08:30:10;3.45;;;3.25;;
72676;SDS011;60755;51.374;10.662;2022-08-04T08:32:37;4.30;;;3.03;;
72676;SDS011;60755;51.374;10.662;2022-08-04T08:35:03;4.53;;;3.08;;
72676;SDS011;60755;51.374;10.662;2022-08-04T08:37:33;4.10;;;2.80;;
72676;SDS011;60755;51.374;10.662;2022-08-04T08:40:09;4.95;;;2.63;;
72676;SDS011;60755;51.374;10.662;2022-08-04T08:42:59;3.15;;;3.03;;
72676;SDS011;60755;51.374;10.662;2022-08-04T08:48:55;2.80;;;2.67;;
72676;SDS011;60755;51.374;10.662;2022-08-04T08:51:35;2.50;;;2.40;;
72676;SDS011;60755;51.374;10.662;2022-08-04T08:54:18;2.65;;;2.55;;
72676;SDS011;60755;51.374;10.662;2022-08-04T08:57:00;5.25;;;2.50;;
72676;SDS011;60755;51.374;10.662;2022-08-04T08:59:46;3.15;;;2.55;;
72676;SDS011;60755;51.374;10.662;2022-08-04T09:02:31;4.28;;;2.35;;
72676;SDS011;60755;51.374;10.662;2022-08-04T09:05:16;7.85;;;2.40;;
72676;SDS011;60755;51.374;10.662;2022-08-04T09:08:00;2.58;;;2.42;;
72676;SDS011;60755;51.374;10.662;2022-08-04T09:10:41;2.85;;;2.60;;
72676;SDS011;60755;51.374;10.662;2022-08-04T09:13:12;2.55;;;2.45;;
72676;SDS011;60755;51.374;10.662;2022-08-04T09:15:46;2.70;;;2.50;;
72676;SDS011;60755;51.374;10.662;2022-08-04T09:18:21;3.15;;;2.30;;
72676;SDS011;60755;51.374;10.662;2022-08-04T09:20:53;2.65;;;2.45;;
72676;SDS011;60755;51.374;10.662;2022-08-04T09:23:27;3.08;;;2.92;;
72676;SDS011;60755;51.374;10.662;2022-08-04T09:26:02;2.67;;;2.47;;
72676;SDS011;60755;51.374;10.662;2022-08-04T09:28:34;3.58;;;2.60;;
72676;SDS011;60755;51.374;10.662;2022-08-04T09:31:15;4.32;;;2.30;;
72676;SDS011;60755;51.374;10.662;2022-08-04T09:33:47;2.50;;;2.40;;
72676;SDS011;60755;51.374;10.662;2022-08-04T09:36:26;2.90;;;2.55;;
72676;SDS011;60755;51.374;10.662;2022-08-04T09:39:02;2.50;;;2.33;;
72676;SDS011;60755;51.374;10.662;2022-08-04T09:41:37;3.00;;;2.28;;
72676;SDS011;60755;51.374;10.662;2022-08-04T09:44:14;2.38;;;2.38;;
72676;SDS011;60755;51.374;10.662;2022-08-04T09:46:48;3.17;;;2.40;;
72676;SDS011;60755;51.374;10.662;2022-08-04T09:49:20;2.47;;;2.22;;
72676;SDS011;60755;51.374;10.662;2022-08-04T09:51:55;2.35;;;2.25;;
72676;SDS011;60755;51.374;10.662;2022-08-04T09:54:35;2.17;;;2.08;;
72676;SDS011;60755;51.374;10.662;2022-08-04T09:57:14;3.22;;;2.20;;
72676;SDS011;60755;51.374;10.662;2022-08-04T09:59:52;2.38;;;1.95;;
72676;SDS011;60755;51.374;10.662;2022-08-04T10:02:23;2.50;;;2.40;;
72676;SDS011;60755;51.374;10.662;2022-08-04T10:04:54;2.35;;;2.25;;
72676;SDS011;60755;51.374;10.662;2022-08-04T10:10:31;2.75;;;2.17;;
72676;SDS011;60755;51.374;10.662;2022-08-04T10:13:27;2.63;;;2.50;;
72676;SDS011;60755;51.374;10.662;2022-08-04T10:16:09;2.28;;;2.15;;
72676;SDS011;60755;51.374;10.662;2022-08-04T10:18:48;4.15;;;2.33;;
72676;SDS011;60755;51.374;10.662;2022-08-04T10:21:25;2.55;;;2.10;;
72676;SDS011;60755;51.374;10.662;2022-08-04T10:24:06;2.38;;;2.05;;
72676;SDS011;60755;51.374;10.662;2022-08-04T10:26:45;2.15;;;2.05;;
72676;SDS011;60755;51.374;10.662;2022-08-04T10:29:18;2.33;;;2.13;;
72676;SDS011;60755;51.374;10.662;2022-08-04T10:31:52;3.00;;;2.25;;
72676;SDS011;60755;51.374;10.662;2022-08-04T10:34:25;5.18;;;2.00;;
72676;SDS011;60755;51.374;10.662;2022-08-04T10:36:55;2.30;;;2.20;;
72676;SDS011;60755;51.374;10.662;2022-08-04T10:39:31;3.72;;;2.40;;
72676;SDS011;60755;51.374;10.662;2022-08-04T10:42:08;2.30;;;2.10;;
72676;SDS011;60755;51.374;10.662;2022-08-04T10:44:50;2.15;;;2.15;;
72676;SDS011;60755;51.374;10.662;2022-08-04T10:47:29;6.32;;;2.60;;
72676;SDS011;60755;51.374;10.662;2022-08-04T10:50:00;5.72;;;2.40;;
72676;SDS011;60755;51.374;10.662;2022-08-04T10:52:30;4.18;;;2.15;;
72676;SDS011;60755;51.374;10.662;2022-08-04T10:55:02;3.15;;;2.60;;
72676;SDS011;60755;51.374;10.662;2022-08-04T10:57:32;2.80;;;2.60;;
72676;SDS011;60755;51.374;10.662;2022-08-04T11:00:04;6.00;;;2.42;;
72676;SDS011;60755;51.374;10.662;2022-08-04T11:02:35;3.03;;;2.60;;
72676;SDS011;60755;51.374;10.662;2022-08-04T11:05:10;3.17;;;2.30;;
72676;SDS011;60755;51.374;10.662;2022-08-04T11:07:40;5.38;;;2.55;;
72676;SDS011;60755;51.374;10.662;2022-08-04T11:10:09;2.53;;;2.30;;
72676;SDS011;60755;51.374;10.662;2022-08-04T11:12:37;4.35;;;2.13;;
72676;SDS011;60755;51.374;10.662;2022-08-04T11:15:09;2.80;;;2.10;;
72676;SDS011;60755;51.374;10.662;2022-08-04T11:17:39;2.45;;;2.20;;
72676;SDS011;60755;51.374;10.662;2022-08-04T11:20:11;2.30;;;2.30;;
72676;SDS011;60755;51.374;10.662;2022-08-04T11:22:40;3.70;;;2.10;;
72676;SDS011;60755;51.374;10.662;2022-08-04T11:25:14;6.63;;;2.47;;
72676;SDS011;60755;51.374;10.662;2022-08-04T11:27:46;2.33;;;2.20;;
72676;SDS011;60755;51.374;10.662;2022-08-04T11:30:21;2.70;;;2.28;;
72676;SDS011;60755;51.374;10.662;2022-08-04T11:32:52;2.67;;;2.15;;
72676;SDS011;60755;51.374;10.662;2022-08-04T11:35:28;2.50;;;2.40;;
72676;SDS011;60755;51.374;10.662;2022-08-04T11:37:59;3.00;;;2.20;;
72676;SDS011;60755;51.374;10.662;2022-08-04T11:40:35;2.78;;;2.10;;
72676;SDS011;60755;51.374;10.662;2022-08-04T11:43:05;1.95;;;1.95;;
72676;SDS011;60755;51.374;10.662;2022-08-04T11:45:40;2.40;;;2.20;;
72676;SDS011;60755;51.374;10.662;2022-08-04T11:48:15;2.20;;;2.20;;
72676;SDS011;60755;51.374;10.662;2022-08-04T11:50:46;2.60;;;2.40;;
72676;SDS011;60755;51.374;10.662;2022-08-04T11:53:17;2.35;;;2.13;;
72676;SDS011;60755;51.374;10.662;2022-08-04T11:55:48;2.38;;;2.17;;
72676;SDS011;60755;51.374;10.662;2022-08-04T11:58:17;2.30;;;2.30;;
72676;SDS011;60755;51.374;10.662;2022-08-04T12:00:49;2.53;;;2.30;;
72676;SDS011;60755;51.374;10.662;2022-08-04T12:03:25;3.53;;;2.60;;
72676;SDS011;60755;51.374;10.662;2022-08-04T12:06:05;2.47;;;2.25;;
72676;SDS011;60755;51.374;10.662;2022-08-04T12:08:54;2.30;;;2.20;;
72676;SDS011;60755;51.374;10.662;2022-08-04T12:11:33;2.50;;;2.40;;
72676;SDS011;60755;51.374;10.662;2022-08-04T12:14:08;2.50;;;2.30;;
72676;SDS011;60755;51.374;10.662;2022-08-04T12:16:47;4.57;;;2.10;;
72676;SDS011;60755;51.374;10.662;2022-08-04T12:19:22;3.33;;;2.75;;
72676;SDS011;60755;51.374;10.662;2022-08-04T12:21:56;2.55;;;2.35;;
72676;SDS011;60755;51.374;10.662;2022-08-04T12:24:26;2.30;;;2.30;;
72676;SDS011;60755;51.374;10.662;2022-08-04T12:27:02;2.40;;;2.20;;
72676;SDS011;60755;51.374;10.662;2022-08-04T12:29:39;2.30;;;2.20;;
72676;SDS011;60755;51.374;10.662;2022-08-04T12:32:12;2.47;;;2.30;;
72676;SDS011;60755;51.374;10.662;2022-08-04T12:34:45;2.45;;;2.35;;
72676;SDS011;60755;51.374;10.662;2022-08-04T12:37:22;1.92;;;1.92;;
72676;SDS011;60755;51.374;10.662;2022-08-04T12:39:56;2.92;;;2.10;;
72676;SDS011;60755;51.374;10.662;2022-08-04T12:42:28;2.60;;;2.30;;
72676;SDS011;60755;51.374;10.662;2022-08-04T12:45:02;2.70;;;2.50;;
72676;SDS011;60755;51.374;10.662;2022-08-04T12:47:33;7.78;;;2.15;;
72676;SDS011;60755;51.374;10.662;2022-08-04T12:50:01;3.42;;;2.05;;
72676;SDS011;60755;51.374;10.662;2022-08-04T12:52:30;2.85;;;2.40;;
72676;SDS011;60755;51.374;10.662;2022-08-04T12:55:00;2.78;;;2.60;;
72676;SDS011;60755;51.374;10.662;2022-08-04T12:57:27;3.40;;;3.08;;
72676;SDS011;60755;51.374;10.662;2022-08-04T12:59:58;3.20;;;2.50;;
72676;SDS011;60755;51.374;10.662;2022-08-04T13:02:26;2.47;;;2.30;;
72676;SDS011;60755;51.374;10.662;2022-08-04T13:04:57;5.00;;;4.35;;
72676;SDS011;60755;51.374;10.662;2022-08-04T13:07:27;3.85;;;3.42;;
72676;SDS011;60755;51.374;10.662;2022-08-04T13:10:04;2.80;;;2.60;;
72676;SDS011;60755;51.374;10.662;2022-08-04T13:12:35;2.45;;;2.42;;
72676;SDS011;60755;51.374;10.662;2022-08-04T13:15:05;3.00;;;2.58;;
72676;SDS011;60755;51.374;10.662;2022-08-04T13:17:44;2.60;;;2.40;;
72676;SDS011;60755;51.374;10.662;2022-08-04T13:20:16;2.70;;;2.20;;
72676;SDS011;60755;51.374;10.662;2022-08-04T13:22:48;2.72;;;2.55;;
72676;SDS011;60755;51.374;10.662;2022-08-04T13:25:15;4.57;;;2.88;;
72676;SDS011;60755;51.374;10.662;2022-08-04T13:27:42;2.40;;;2.40;;
72676;SDS011;60755;51.374;10.662;2022-08-04T13:30:11;2.40;;;2.30;;
72676;SDS011;60755;51.374;10.662;2022-08-04T13:32:38;2.75;;;2.65;;
72676;SDS011;60755;51.374;10.662;2022-08-04T13:35:06;2.45;;;2.40;;
72676;SDS011;60755;51.374;10.662;2022-08-04T13:37:35;2.53;;;2.30;;
72676;SDS011;60755;51.374;10.662;2022-08-04T13:40:05;4.85;;;2.38;;
72676;SDS011;60755;51.374;10.662;2022-08-04T13:42:34;3.08;;;2.65;;
72676;SDS011;60755;51.374;10.662;2022-08-04T13:45:04;2.70;;;2.30;;
72676;SDS011;60755;51.374;10.662;2022-08-04T13:47:33;2.67;;;2.47;;
72676;SDS011;60755;51.374;10.662;2022-08-04T13:50:05;2.53;;;2.30;;
72676;SDS011;60755;51.374;10.662;2022-08-04T13:52:46;2.42;;;2.33;;
72676;SDS011;60755;51.374;10.662;2022-08-04T13:55:21;3.00;;;2.63;;
72676;SDS011;60755;51.374;10.662;2022-08-04T13:57:50;2.50;;;2.30;;
72676;SDS011;60755;51.374;10.662;2022-08-04T14:00:20;2.20;;;2.10;;
72676;SDS011;60755;51.374;10.662;2022-08-04T14:02:49;2.20;;;2.20;;
72676;SDS011;60755;51.374;10.662;2022-08-04T14:05:24;2.60;;;2.50;;
72676;SDS011;60755;51.374;10.662;2022-08-04T14:07:54;2.47;;;2.22;;
72676;SDS011;60755;51.374;10.662;2022-08-04T14:10:26;3.00;;;2.80;;
72676;SDS011;60755;51.374;10.662;2022-08-04T14:12:52;2.40;;;2.30;;
72676;SDS011;60755;51.374;10.662;2022-08-04T14:15:30;3.65;;;2.90;;
72676;SDS011;60755;51.374;10.662;2022-08-04T14:18:14;2.55;;;2.38;;
72676;SDS011;60755;51.374;10.662;2022-08-04T14:20:56;2.70;;;2.60;;
72676;SDS011;60755;51.374;10.662;2022-08-04T14:23:25;2.58;;;2.42;;
72676;SDS011;60755;51.374;10.662;2022-08-04T14:25:51;2.33;;;2.22;;
72676;SDS011;60755;51.374;10.662;2022-08-04T14:28:25;2.30;;;2.20;;
72676;SDS011;60755;51.374;10.662;2022-08-04T14:31:02;2.70;;;2.45;;
72676;SDS011;60755;51.374;10.662;2022-08-04T14:33:37;2.85;;;2.47;;
72676;SDS011;60755;51.374;10.662;2022-08-04T14:36:06;2.30;;;2.28;;
72676;SDS011;60755;51.374;10.662;2022-08-04T14:38:53;2.80;;;2.58;;
72676;SDS011;60755;51.374;10.662;2022-08-04T14:41:22;2.20;;;2.10;;
72676;SDS011;60755;51.374;10.662;2022-08-04T14:43:51;2.72;;;2.60;;
72676;SDS011;60755;51.374;10.662;2022-08-04T14:46:18;2.20;;;2.10;;
72676;SDS011;60755;51.374;10.662;2022-08-04T14:48:59;2.30;;;2.10;;
72676;SDS011;60755;51.374;10.662;2022-08-04T14:51:27;2.25;;;2.20;;
72676;SDS011;60755;51.374;10.662;2022-08-04T14:53:54;2.22;;;2.22;;
72676;SDS011;60755;51.374;10.662;2022-08-04T14:56:21;2.72;;;2.40;;
72676;SDS011;60755;51.374;10.662;2022-08-04T14:58:57;2.22;;;2.17;;
72676;SDS011;60755;51.374;10.662;2022-08-04T15:01:24;2.80;;;2.60;;
72676;SDS011;60755;51.374;10.662;2022-08-04T15:03:53;2.70;;;2.50;;
72676;SDS011;60755;51.374;10.662;2022-08-04T15:06:21;2.67;;;2.53;;
72676;SDS011;60755;51.374;10.662;2022-08-04T15:08:50;2.42;;;2.33;;
72676;SDS011;60755;51.374;10.662;2022-08-04T15:11:19;2.67;;;2.42;;
72676;SDS011;60755;51.374;10.662;2022-08-04T15:13:46;2.60;;;2.40;;
72676;SDS011;60755;51.374;10.662;2022-08-04T15:16:12;2.28;;;2.22;;
72676;SDS011;60755;51.374;10.662;2022-08-04T15:18:40;2.95;;;2.60;;
72676;SDS011;60755;51.374;10.662;2022-08-04T15:21:06;2.40;;;2.30;;
72676;SDS011;60755;51.374;10.662;2022-08-04T15:23:33;2.60;;;2.45;;
72676;SDS011;60755;51.374;10.662;2022-08-04T15:26:01;3.00;;;2.30;;
72676;SDS011;60755;51.374;10.662;2022-08-04T15:28:30;2.38;;;2.28;;
72676;SDS011;60755;51.374;10.662;2022-08-04T15:31:00;2.67;;;2.28;;
72676;SDS011;60755;51.374;10.662;2022-08-04T15:33:29;2.42;;;2.42;;
72676;SDS011;60755;51.374;10.662;2022-08-04T15:36:08;2.72;;;2.55;;
72676;SDS011;60755;51.374;10.662;2022-08-04T15:38:38;6.57;;;2.58;;
72676;SDS011;60755;51.374;10.662;2022-08-04T15:41:13;2.42;;;2.33;;
72676;SDS011;60755;51.374;10.662;2022-08-04T15:43:48;2.45;;;2.33;;
72676;SDS011;60755;51.374;10.662;2022-08-04T15:46:30;2.63;;;2.53;;
72676;SDS011;60755;51.374;10.662;2022-08-04T15:49:35;2.75;;;2.50;;
72676;SDS011;60755;51.374;10.662;2022-08-04T15:52:04;3.90;;;2.47;;
72676;SDS011;60755;51.374;10.662;2022-08-04T15:54:32;2.20;;;2.20;;
72676;SDS011;60755;51.374;10.662;2022-08-04T15:57:00;2.90;;;2.70;;
72676;SDS011;60755;51.374;10.662;2022-08-04T16:02:28;2.88;;;2.17;;
72676;SDS011;60755;51.374;10.662;2022-08-04T16:05:27;2.40;;;2.28;;